Startpagina
METAR-TAF:

METAR-TAF

Vliegvelden :

Baker City, Oregon, Verenigde Staten

breedte: 44-50-14N, lengte: 117-48-33W, hoogte: 1028 m

Actueel weer

Dit bericht is 47 minuten geleden gemaakt, om 07:53 UTC
Wind 5 kt uit het zuiden
Temperatuur 5°C
Vochtigheid 60%
Druk 1016 hPa
Zicht: 16.1 km
Onbewolkt

METAR: KBKE 190753Z AUTO 18005KT 10SM CLR 05/M02 A2999 RMK AO2 SLP148 T00501017 402330028

Tijdstip: 01:40 (08:40 UTC)

Verwachting

Dit bericht is 3 uur en het 20 minuten geleden gemaakt, om 05:20 UTC
Verwachting geldig van 19 om 06 UTC tot 20 om 06 UTC
Wind 5 kt uit het noordwesten
Zicht: 10 km
Onbewolkt
Van 19 om 2200 UTC
Wind 12 kt uit het noordwesten met uitschieters tot 18 kt
Zicht: 10 km
Weinig wolken op 25000 ft
Van 20 om 0100 UTC
Wind 10 kt uit het noordwesten
Zicht: 10 km
Onbewolkt

TAF: KBKE 190520Z 1906/2006 31005KT P6SM SKC FM192200 32012G18KT P6SM FEW250 FM200100 32010KT P6SM SKC

Waarnemingen en weersverwachtingen van meer dan 4000 vliegvelden (METAR en TAF).

De beschikbare stations zijn de gele en rode punten op de kaart.

Ga met uw muis naar het station om de naam te zien.

Klik dan om waarnemingen en weersverwachtingen te zien.

kaart wijzigen: klik op de groene knoppen met een zwart kruis om in te zoomen, op de groene knop met een streepje om uit te zoomen of op de groene pijlen voor aangrenzende kaarten.


METAR-TAF: